Details for FedEx at CYYZ




Go Back


Latest METAR
Local Time

CYYZ 181400Z 34010KT 15SM FEW030 SCT250 23/19 A2986 RMK SC2CI1 SLP109 DENSITY ALT 1800FT
18/09/2018, 10:27:39

Description
Results
FedEx Logo
Number of Pilots based at CYYZ
0 Pilots Based here
Number of FedEx Flights Departed from CYYZ
0 Flights Departed
Number of FedEx Flights Arrived at CYYZ
0 Flights Arrived
Number of FedEx Schedules Departing from CYYZ
16 Schedules
Number of FedEx Schedules Arriving at CYYZ
17 Schedules
Number of FedEx Schedules Departing from CYYZ availible today
5 Schedules Today
Number of FedEx Schedules Arriving at CYYZ availible today
5 Schedules Today
Average Landing Rate at CYYZ
-259 fpm
FedEx Average Landing Rate at CYYZ
0 fpm
Total Fuel Purchased at CYYZ by FedEx
0.00 kgs / 0.00 lbs

Pilots Based at CYYZ


Pilot ID
Pilot Name
Pilot Rank
No. of Flights
No. of Flying Hours
There are no pilots assigned to this hub!   Will you be the first?
Content